sensor_id;sensor_type;location;lat;lon;timestamp;temperature;humidity
20233;DHT22;37438;55.674;13.074;2023-03-31T00:00:04;12.40;99.90
20233;DHT22;37438;55.674;13.074;2023-03-31T00:03:15;12.60;99.90
20233;DHT22;37438;55.674;13.074;2023-03-31T00:06:26;12.80;99.90
20233;DHT22;37438;55.674;13.074;2023-03-31T00:09:31;12.90;99.90
20233;DHT22;37438;55.674;13.074;2023-03-31T00:12:36;12.90;99.90
20233;DHT22;37438;55.674;13.074;2023-03-31T00:15:40;12.90;99.90
20233;DHT22;37438;55.674;13.074;2023-03-31T00:18:45;12.90;99.90
20233;DHT22;37438;55.674;13.074;2023-03-31T00:21:50;13.00;99.90
20233;DHT22;37438;55.674;13.074;2023-03-31T00:24:55;13.30;99.90
20233;DHT22;37438;55.674;13.074;2023-03-31T00:27:59;13.10;99.90
20233;DHT22;37438;55.674;13.074;2023-03-31T00:31:04;13.30;99.90
20233;DHT22;37438;55.674;13.074;2023-03-31T00:34:08;13.10;99.90
20233;DHT22;37438;55.674;13.074;2023-03-31T00:37:12;13.30;99.90
20233;DHT22;37438;55.674;13.074;2023-03-31T00:40:21;13.30;99.90
20233;DHT22;37438;55.674;13.074;2023-03-31T00:43:30;13.20;99.90
20233;DHT22;37438;55.674;13.074;2023-03-31T00:46:37;13.40;99.90
20233;DHT22;37438;55.674;13.074;2023-03-31T00:49:44;13.30;99.90
20233;DHT22;37438;55.674;13.074;2023-03-31T00:52:50;13.40;99.90
20233;DHT22;37438;55.674;13.074;2023-03-31T00:55:59;13.40;99.90
20233;DHT22;37438;55.674;13.074;2023-03-31T00:59:06;13.20;99.90
20233;DHT22;37438;55.674;13.074;2023-03-31T01:02:12;13.20;99.90
20233;DHT22;37438;55.674;13.074;2023-03-31T01:05:28;13.20;99.90
20233;DHT22;37438;55.674;13.074;2023-03-31T01:08:36;13.30;99.90
20233;DHT22;37438;55.674;13.074;2023-03-31T01:11:42;13.10;99.90
20233;DHT22;37438;55.674;13.074;2023-03-31T01:14:48;13.30;99.90
20233;DHT22;37438;55.674;13.074;2023-03-31T01:17:53;13.20;99.90
20233;DHT22;37438;55.674;13.074;2023-03-31T01:24:25;13.20;99.90
20233;DHT22;37438;55.674;13.074;2023-03-31T01:27:44;13.00;99.90
20233;DHT22;37438;55.674;13.074;2023-03-31T01:34:19;12.90;99.90
20233;DHT22;37438;55.674;13.074;2023-03-31T01:50:32;13.50;99.90
20233;DHT22;37438;55.674;13.074;2023-03-31T01:53:53;13.50;99.90
20233;DHT22;37438;55.674;13.074;2023-03-31T01:56:59;13.30;99.90
20233;DHT22;37438;55.674;13.074;2023-03-31T02:00:18;13.50;99.90
20233;DHT22;37438;55.674;13.074;2023-03-31T02:03:25;13.30;99.90
20233;DHT22;37438;55.674;13.074;2023-03-31T02:06:33;13.40;99.90
20233;DHT22;37438;55.674;13.074;2023-03-31T02:09:40;13.50;99.90
20233;DHT22;37438;55.674;13.074;2023-03-31T02:12:45;13.50;99.90
20233;DHT22;37438;55.674;13.074;2023-03-31T02:15:53;13.40;99.90
20233;DHT22;37438;55.674;13.074;2023-03-31T02:19:02;13.30;99.90
20233;DHT22;37438;55.674;13.074;2023-03-31T02:22:07;13.30;99.90
20233;DHT22;37438;55.674;13.074;2023-03-31T02:25:13;13.30;99.90
20233;DHT22;37438;55.674;13.074;2023-03-31T02:28:20;13.30;99.90
20233;DHT22;37438;55.674;13.074;2023-03-31T02:34:30;13.50;99.90
20233;DHT22;37438;55.674;13.074;2023-03-31T02:37:35;13.50;99.90
20233;DHT22;37438;55.674;13.074;2023-03-31T02:40:40;13.40;99.90
20233;DHT22;37438;55.674;13.074;2023-03-31T02:43:44;13.40;99.90
20233;DHT22;37438;55.674;13.074;2023-03-31T02:46:49;13.30;99.90
20233;DHT22;37438;55.674;13.074;2023-03-31T02:49:55;13.30;99.90
20233;DHT22;37438;55.674;13.074;2023-03-31T02:56:47;13.70;99.90
20233;DHT22;37438;55.674;13.074;2023-03-31T03:03:17;14.10;99.90
20233;DHT22;37438;55.674;13.074;2023-03-31T03:10:05;14.40;99.90
20233;DHT22;37438;55.674;13.074;2023-03-31T03:13:17;14.50;99.90
20233;DHT22;37438;55.674;13.074;2023-03-31T03:19:29;14.60;99.90
20233;DHT22;37438;55.674;13.074;2023-03-31T03:22:34;14.60;99.90
20233;DHT22;37438;55.674;13.074;2023-03-31T03:25:39;14.50;99.90
20233;DHT22;37438;55.674;13.074;2023-03-31T03:28:44;14.60;99.90
20233;DHT22;37438;55.674;13.074;2023-03-31T03:31:48;14.60;99.90
20233;DHT22;37438;55.674;13.074;2023-03-31T03:34:53;14.40;99.90
20233;DHT22;37438;55.674;13.074;2023-03-31T03:37:57;14.70;99.90
20233;DHT22;37438;55.674;13.074;2023-03-31T03:41:01;14.50;99.90
20233;DHT22;37438;55.674;13.074;2023-03-31T03:44:05;14.70;99.90
20233;DHT22;37438;55.674;13.074;2023-03-31T03:47:10;14.50;99.90
20233;DHT22;37438;55.674;13.074;2023-03-31T03:50:15;14.70;99.90
20233;DHT22;37438;55.674;13.074;2023-03-31T03:53:20;14.70;99.90
20233;DHT22;37438;55.674;13.074;2023-03-31T03:56:24;14.80;99.90
20233;DHT22;37438;55.674;13.074;2023-03-31T03:59:29;14.70;99.90
20233;DHT22;37438;55.674;13.074;2023-03-31T04:02:34;14.80;99.90
20233;DHT22;37438;55.674;13.074;2023-03-31T04:05:38;14.70;99.90
20233;DHT22;37438;55.674;13.074;2023-03-31T04:08:43;14.70;99.90
20233;DHT22;37438;55.674;13.074;2023-03-31T04:11:47;14.70;99.90
20233;DHT22;37438;55.674;13.074;2023-03-31T04:14:51;14.60;99.90
20233;DHT22;37438;55.674;13.074;2023-03-31T04:17:55;14.80;99.90
20233;DHT22;37438;55.674;13.074;2023-03-31T04:21:01;14.80;99.90
20233;DHT22;37438;55.674;13.074;2023-03-31T04:24:09;14.60;99.90
20233;DHT22;37438;55.674;13.074;2023-03-31T04:27:14;14.50;99.90
20233;DHT22;37438;55.674;13.074;2023-03-31T04:30:21;14.80;99.90
20233;DHT22;37438;55.674;13.074;2023-03-31T04:33:28;14.50;99.90
20233;DHT22;37438;55.674;13.074;2023-03-31T04:36:32;14.60;99.90
20233;DHT22;37438;55.674;13.074;2023-03-31T04:39:37;14.60;99.90
20233;DHT22;37438;55.674;13.074;2023-03-31T04:42:42;14.60;99.90
20233;DHT22;37438;55.674;13.074;2023-03-31T04:45:47;14.80;99.90
20233;DHT22;37438;55.674;13.074;2023-03-31T04:48:52;14.50;99.90
20233;DHT22;37438;55.674;13.074;2023-03-31T04:51:56;14.60;99.90
20233;DHT22;37438;55.674;13.074;2023-03-31T04:55:00;14.60;99.90
20233;DHT22;37438;55.674;13.074;2023-03-31T04:58:05;14.80;99.90
20233;DHT22;37438;55.674;13.074;2023-03-31T05:01:11;14.90;99.90
20233;DHT22;37438;55.674;13.074;2023-03-31T05:04:21;14.70;99.90
20233;DHT22;37438;55.674;13.074;2023-03-31T05:07:26;14.90;99.90
20233;DHT22;37438;55.674;13.074;2023-03-31T05:10:30;14.80;99.90
20233;DHT22;37438;55.674;13.074;2023-03-31T05:13:35;14.80;99.90
20233;DHT22;37438;55.674;13.074;2023-03-31T05:16:39;14.90;99.90
20233;DHT22;37438;55.674;13.074;2023-03-31T05:19:45;15.20;99.90
20233;DHT22;37438;55.674;13.074;2023-03-31T05:22:49;15.00;99.90
20233;DHT22;37438;55.674;13.074;2023-03-31T05:25:54;15.10;99.90
20233;DHT22;37438;55.674;13.074;2023-03-31T05:28:58;15.10;99.90
20233;DHT22;37438;55.674;13.074;2023-03-31T05:32:03;15.30;99.90
20233;DHT22;37438;55.674;13.074;2023-03-31T05:35:08;15.30;99.90
20233;DHT22;37438;55.674;13.074;2023-03-31T05:38:13;15.20;99.90
20233;DHT22;37438;55.674;13.074;2023-03-31T05:41:17;15.30;99.90
20233;DHT22;37438;55.674;13.074;2023-03-31T05:44:24;15.40;99.90
20233;DHT22;37438;55.674;13.074;2023-03-31T05:47:30;15.40;99.90
20233;DHT22;37438;55.674;13.074;2023-03-31T05:50:35;15.10;99.90
20233;DHT22;37438;55.674;13.074;2023-03-31T05:53:39;15.30;99.90
20233;DHT22;37438;55.674;13.074;2023-03-31T05:56:44;15.10;99.90
20233;DHT22;37438;55.674;13.074;2023-03-31T05:59:49;15.20;99.90
20233;DHT22;37438;55.674;13.074;2023-03-31T06:02:53;15.50;99.90
20233;DHT22;37438;55.674;13.074;2023-03-31T06:05:58;15.30;99.90
20233;DHT22;37438;55.674;13.074;2023-03-31T06:09:02;15.30;99.90
20233;DHT22;37438;55.674;13.074;2023-03-31T06:12:07;14.90;99.90
20233;DHT22;37438;55.674;13.074;2023-03-31T06:15:11;15.10;99.90
20233;DHT22;37438;55.674;13.074;2023-03-31T06:18:15;14.70;99.90
20233;DHT22;37438;55.674;13.074;2023-03-31T06:21:19;14.80;99.90
20233;DHT22;37438;55.674;13.074;2023-03-31T06:24:24;14.70;99.90
20233;DHT22;37438;55.674;13.074;2023-03-31T06:27:28;14.60;99.90
20233;DHT22;37438;55.674;13.074;2023-03-31T06:30:33;14.40;99.90
20233;DHT22;37438;55.674;13.074;2023-03-31T06:33:38;14.50;99.90
20233;DHT22;37438;55.674;13.074;2023-03-31T06:36:42;14.40;99.90
20233;DHT22;37438;55.674;13.074;2023-03-31T06:39:46;14.50;99.90
20233;DHT22;37438;55.674;13.074;2023-03-31T06:42:52;14.50;99.90
20233;DHT22;37438;55.674;13.074;2023-03-31T06:45:56;14.30;99.90
20233;DHT22;37438;55.674;13.074;2023-03-31T06:49:01;14.20;99.90
20233;DHT22;37438;55.674;13.074;2023-03-31T06:52:05;14.30;99.90
20233;DHT22;37438;55.674;13.074;2023-03-31T06:55:10;14.40;99.90
20233;DHT22;37438;55.674;13.074;2023-03-31T06:58:16;14.30;99.90
20233;DHT22;37438;55.674;13.074;2023-03-31T07:01:45;14.00;99.90
20233;DHT22;37438;55.674;13.074;2023-03-31T07:04:52;14.10;99.90
20233;DHT22;37438;55.674;13.074;2023-03-31T07:07:57;14.10;99.90
20233;DHT22;37438;55.674;13.074;2023-03-31T07:11:02;14.00;99.90
20233;DHT22;37438;55.674;13.074;2023-03-31T07:14:06;14.00;99.90
20233;DHT22;37438;55.674;13.074;2023-03-31T07:17:11;14.00;99.90
20233;DHT22;37438;55.674;13.074;2023-03-31T07:20:17;14.10;99.90
20233;DHT22;37438;55.674;13.074;2023-03-31T07:23:21;14.20;99.90
20233;DHT22;37438;55.674;13.074;2023-03-31T07:26:26;14.20;99.90
20233;DHT22;37438;55.674;13.074;2023-03-31T07:29:30;14.10;99.90
20233;DHT22;37438;55.674;13.074;2023-03-31T07:32:34;14.20;99.90
20233;DHT22;37438;55.674;13.074;2023-03-31T07:35:43;14.30;99.90
20233;DHT22;37438;55.674;13.074;2023-03-31T07:38:48;14.10;99.90
20233;DHT22;37438;55.674;13.074;2023-03-31T07:41:52;14.10;99.90
20233;DHT22;37438;55.674;13.074;2023-03-31T07:44:57;14.00;99.90
20233;DHT22;37438;55.674;13.074;2023-03-31T07:48:01;14.00;99.90
20233;DHT22;37438;55.674;13.074;2023-03-31T07:51:05;14.00;99.90
20233;DHT22;37438;55.674;13.074;2023-03-31T07:54:12;13.80;99.90
20233;DHT22;37438;55.674;13.074;2023-03-31T07:57:17;13.80;99.90
20233;DHT22;37438;55.674;13.074;2023-03-31T08:00:22;13.90;99.90
20233;DHT22;37438;55.674;13.074;2023-03-31T08:03:27;13.80;99.90
20233;DHT22;37438;55.674;13.074;2023-03-31T08:06:32;14.00;99.90
20233;DHT22;37438;55.674;13.074;2023-03-31T08:09:36;13.90;99.90
20233;DHT22;37438;55.674;13.074;2023-03-31T08:12:41;13.90;99.90
20233;DHT22;37438;55.674;13.074;2023-03-31T08:15:45;13.90;99.90
20233;DHT22;37438;55.674;13.074;2023-03-31T08:18:50;13.60;99.90
20233;DHT22;37438;55.674;13.074;2023-03-31T08:21:54;13.40;99.90
20233;DHT22;37438;55.674;13.074;2023-03-31T08:24:58;13.50;99.90
20233;DHT22;37438;55.674;13.074;2023-03-31T08:28:03;13.50;99.90
20233;DHT22;37438;55.674;13.074;2023-03-31T08:31:07;13.30;99.90
20233;DHT22;37438;55.674;13.074;2023-03-31T08:34:13;13.40;99.90
20233;DHT22;37438;55.674;13.074;2023-03-31T08:37:17;13.30;99.90
20233;DHT22;37438;55.674;13.074;2023-03-31T08:40:23;13.00;99.90
20233;DHT22;37438;55.674;13.074;2023-03-31T08:43:30;12.90;99.90
20233;DHT22;37438;55.674;13.074;2023-03-31T08:46:35;12.80;99.90
20233;DHT22;37438;55.674;13.074;2023-03-31T08:49:43;12.80;99.90
20233;DHT22;37438;55.674;13.074;2023-03-31T08:52:54;12.70;99.90
20233;DHT22;37438;55.674;13.074;2023-03-31T08:56:00;12.80;99.90
20233;DHT22;37438;55.674;13.074;2023-03-31T08:59:06;13.00;99.90
20233;DHT22;37438;55.674;13.074;2023-03-31T09:02:22;12.70;99.90
20233;DHT22;37438;55.674;13.074;2023-03-31T09:05:45;12.60;99.90
20233;DHT22;37438;55.674;13.074;2023-03-31T09:09:17;12.70;99.90
20233;DHT22;37438;55.674;13.074;2023-03-31T09:12:29;12.80;99.90
20233;DHT22;37438;55.674;13.074;2023-03-31T09:15:39;12.70;99.90
20233;DHT22;37438;55.674;13.074;2023-03-31T09:18:45;12.80;99.90
20233;DHT22;37438;55.674;13.074;2023-03-31T09:21:53;12.90;99.90
20233;DHT22;37438;55.674;13.074;2023-03-31T09:25:04;13.00;99.90
20233;DHT22;37438;55.674;13.074;2023-03-31T09:28:21;13.40;99.90
20233;DHT22;37438;55.674;13.074;2023-03-31T09:31:26;13.50;99.90
20233;DHT22;37438;55.674;13.074;2023-03-31T09:34:31;13.40;99.90
20233;DHT22;37438;55.674;13.074;2023-03-31T09:37:36;13.10;99.90
20233;DHT22;37438;55.674;13.074;2023-03-31T09:41:06;13.40;99.90
20233;DHT22;37438;55.674;13.074;2023-03-31T09:45:00;13.60;99.90
20233;DHT22;37438;55.674;13.074;2023-03-31T09:48:08;13.60;99.90
20233;DHT22;37438;55.674;13.074;2023-03-31T09:51:16;13.90;99.90
20233;DHT22;37438;55.674;13.074;2023-03-31T09:54:23;13.60;99.90
20233;DHT22;37438;55.674;13.074;2023-03-31T09:57:33;13.80;99.90
20233;DHT22;37438;55.674;13.074;2023-03-31T10:00:42;14.30;99.90
20233;DHT22;37438;55.674;13.074;2023-03-31T10:03:48;14.30;99.90
20233;DHT22;37438;55.674;13.074;2023-03-31T10:07:19;14.50;99.90
20233;DHT22;37438;55.674;13.074;2023-03-31T10:10:30;14.50;99.90
20233;DHT22;37438;55.674;13.074;2023-03-31T10:13:45;13.80;99.90
20233;DHT22;37438;55.674;13.074;2023-03-31T10:16:52;13.50;99.90
20233;DHT22;37438;55.674;13.074;2023-03-31T10:19:58;13.10;99.90
20233;DHT22;37438;55.674;13.074;2023-03-31T10:23:03;12.80;99.90
20233;DHT22;37438;55.674;13.074;2023-03-31T10:26:10;12.90;99.90
20233;DHT22;37438;55.674;13.074;2023-03-31T10:29:19;12.80;99.90
20233;DHT22;37438;55.674;13.074;2023-03-31T10:32:26;13.10;99.90
20233;DHT22;37438;55.674;13.074;2023-03-31T10:35:32;13.50;99.90
20233;DHT22;37438;55.674;13.074;2023-03-31T10:38:38;13.80;99.90
20233;DHT22;37438;55.674;13.074;2023-03-31T10:41:49;13.40;99.90
20233;DHT22;37438;55.674;13.074;2023-03-31T10:45:23;13.50;99.90
20233;DHT22;37438;55.674;13.074;2023-03-31T10:48:40;14.10;99.90
20233;DHT22;37438;55.674;13.074;2023-03-31T10:51:50;14.60;99.90
20233;DHT22;37438;55.674;13.074;2023-03-31T10:54:56;14.20;99.90
20233;DHT22;37438;55.674;13.074;2023-03-31T11:04:21;15.00;99.90
20233;DHT22;37438;55.674;13.074;2023-03-31T11:10:47;12.60;99.90
20233;DHT22;37438;55.674;13.074;2023-03-31T11:14:15;12.10;1.00
20233;DHT22;37438;55.674;13.074;2023-03-31T11:17:41;12.20;99.90
20233;DHT22;37438;55.674;13.074;2023-03-31T11:21:03;12.60;99.90
20233;DHT22;37438;55.674;13.074;2023-03-31T11:31:03;11.50;99.90
20233;DHT22;37438;55.674;13.074;2023-03-31T11:40:47;12.80;99.90
20233;DHT22;37438;55.674;13.074;2023-03-31T11:44:01;13.20;99.90
20233;DHT22;37438;55.674;13.074;2023-03-31T11:47:09;12.60;1.00
20233;DHT22;37438;55.674;13.074;2023-03-31T11:50:15;12.50;1.00
20233;DHT22;37438;55.674;13.074;2023-03-31T11:53:26;13.00;99.90
20233;DHT22;37438;55.674;13.074;2023-03-31T11:56:34;13.00;1.00
20233;DHT22;37438;55.674;13.074;2023-03-31T11:59:39;12.50;99.90
20233;DHT22;37438;55.674;13.074;2023-03-31T12:02:47;12.00;99.90
20233;DHT22;37438;55.674;13.074;2023-03-31T12:06:00;11.90;99.90
20233;DHT22;37438;55.674;13.074;2023-03-31T12:09:14;11.90;99.90
20233;DHT22;37438;55.674;13.074;2023-03-31T12:12:24;11.70;25.50
20233;DHT22;37438;55.674;13.074;2023-03-31T12:15:36;11.90;99.90
20233;DHT22;37438;55.674;13.074;2023-03-31T12:18:44;11.40;99.90
20233;DHT22;37438;55.674;13.074;2023-03-31T12:25:22;11.40;99.90
20233;DHT22;37438;55.674;13.074;2023-03-31T12:28:29;10.90;99.90
20233;DHT22;37438;55.674;13.074;2023-03-31T12:31:37;10.90;99.90
20233;DHT22;37438;55.674;13.074;2023-03-31T12:34:44;11.00;99.90
20233;DHT22;37438;55.674;13.074;2023-03-31T12:37:56;11.10;99.90
20233;DHT22;37438;55.674;13.074;2023-03-31T12:48:25;11.40;99.90
20233;DHT22;37438;55.674;13.074;2023-03-31T12:55:00;11.90;99.90
20233;DHT22;37438;55.674;13.074;2023-03-31T13:01:40;11.30;99.90
20233;DHT22;37438;55.674;13.074;2023-03-31T13:05:39;11.50;99.90
20233;DHT22;37438;55.674;13.074;2023-03-31T13:11:48;12.10;99.90
20233;DHT22;37438;55.674;13.074;2023-03-31T13:14:53;12.30;99.90
20233;DHT22;37438;55.674;13.074;2023-03-31T13:18:03;12.40;99.90
20233;DHT22;37438;55.674;13.074;2023-03-31T13:21:09;12.40;99.90
20233;DHT22;37438;55.674;13.074;2023-03-31T13:24:15;12.50;99.90
20233;DHT22;37438;55.674;13.074;2023-03-31T13:27:29;12.50;99.90
20233;DHT22;37438;55.674;13.074;2023-03-31T13:33:57;12.30;99.90
20233;DHT22;37438;55.674;13.074;2023-03-31T13:59:59;12.10;99.90
20233;DHT22;37438;55.674;13.074;2023-03-31T14:03:23;12.20;99.90
20233;DHT22;37438;55.674;13.074;2023-03-31T14:06:51;12.10;99.90
20233;DHT22;37438;55.674;13.074;2023-03-31T14:09:57;12.20;99.90
20233;DHT22;37438;55.674;13.074;2023-03-31T14:13:03;12.20;99.90
20233;DHT22;37438;55.674;13.074;2023-03-31T14:16:08;12.20;99.90
20233;DHT22;37438;55.674;13.074;2023-03-31T14:22:42;12.20;99.90
20233;DHT22;37438;55.674;13.074;2023-03-31T14:25:50;12.20;99.90
20233;DHT22;37438;55.674;13.074;2023-03-31T14:32:27;11.90;99.90
20233;DHT22;37438;55.674;13.074;2023-03-31T14:35:56;12.00;99.90
20233;DHT22;37438;55.674;13.074;2023-03-31T14:39:02;11.90;99.90
20233;DHT22;37438;55.674;13.074;2023-03-31T14:42:10;11.90;99.90
20233;DHT22;37438;55.674;13.074;2023-03-31T14:45:21;10.90;99.90
20233;DHT22;37438;55.674;13.074;2023-03-31T14:48:28;10.40;99.90
20233;DHT22;37438;55.674;13.074;2023-03-31T14:51:33;9.80;99.90
20233;DHT22;37438;55.674;13.074;2023-03-31T14:54:37;9.60;99.90
20233;DHT22;37438;55.674;13.074;2023-03-31T14:57:41;9.70;99.90
20233;DHT22;37438;55.674;13.074;2023-03-31T15:00:46;9.40;99.90
20233;DHT22;37438;55.674;13.074;2023-03-31T15:03:51;9.10;99.90
20233;DHT22;37438;55.674;13.074;2023-03-31T15:06:58;9.00;99.90
20233;DHT22;37438;55.674;13.074;2023-03-31T15:10:04;8.90;99.90
20233;DHT22;37438;55.674;13.074;2023-03-31T15:13:19;8.80;99.90
20233;DHT22;37438;55.674;13.074;2023-03-31T15:19:37;8.80;99.90
20233;DHT22;37438;55.674;13.074;2023-03-31T15:22:42;8.40;99.90
20233;DHT22;37438;55.674;13.074;2023-03-31T15:25:46;8.30;99.90
20233;DHT22;37438;55.674;13.074;2023-03-31T15:28:52;8.50;99.90
20233;DHT22;37438;55.674;13.074;2023-03-31T15:31:58;8.30;99.90
20233;DHT22;37438;55.674;13.074;2023-03-31T15:35:03;8.10;99.90
20233;DHT22;37438;55.674;13.074;2023-03-31T15:38:26;7.90;99.90
20233;DHT22;37438;55.674;13.074;2023-03-31T15:41:31;7.70;99.90
20233;DHT22;37438;55.674;13.074;2023-03-31T15:47:48;7.60;99.90
20233;DHT22;37438;55.674;13.074;2023-03-31T15:57:34;7.50;99.90
20233;DHT22;37438;55.674;13.074;2023-03-31T16:00:40;7.40;99.90
20233;DHT22;37438;55.674;13.074;2023-03-31T16:03:46;7.30;99.90
20233;DHT22;37438;55.674;13.074;2023-03-31T16:06:52;7.30;99.90
20233;DHT22;37438;55.674;13.074;2023-03-31T16:10:00;7.30;99.90
20233;DHT22;37438;55.674;13.074;2023-03-31T16:13:06;7.20;99.90
20233;DHT22;37438;55.674;13.074;2023-03-31T16:16:12;7.20;99.90
20233;DHT22;37438;55.674;13.074;2023-03-31T16:19:18;7.30;99.90
20233;DHT22;37438;55.674;13.074;2023-03-31T16:22:26;7.30;99.90
20233;DHT22;37438;55.674;13.074;2023-03-31T16:25:34;7.30;99.90
20233;DHT22;37438;55.674;13.074;2023-03-31T16:28:42;7.20;99.90
20233;DHT22;37438;55.674;13.074;2023-03-31T16:32:05;7.20;99.90
20233;DHT22;37438;55.674;13.074;2023-03-31T16:35:09;7.20;99.90
20233;DHT22;37438;55.674;13.074;2023-03-31T16:38:13;7.20;99.90
20233;DHT22;37438;55.674;13.074;2023-03-31T16:41:19;7.20;99.90
20233;DHT22;37438;55.674;13.074;2023-03-31T16:44:24;7.20;99.90
20233;DHT22;37438;55.674;13.074;2023-03-31T16:47:29;7.10;99.90
20233;DHT22;37438;55.674;13.074;2023-03-31T16:50:39;7.10;99.90
20233;DHT22;37438;55.674;13.074;2023-03-31T16:53:45;7.10;99.90
20233;DHT22;37438;55.674;13.074;2023-03-31T16:56:49;7.20;99.90
20233;DHT22;37438;55.674;13.074;2023-03-31T16:59:54;7.10;99.90
20233;DHT22;37438;55.674;13.074;2023-03-31T17:03:02;7.20;99.90
20233;DHT22;37438;55.674;13.074;2023-03-31T17:06:09;7.20;99.90
20233;DHT22;37438;55.674;13.074;2023-03-31T17:09:14;7.10;99.90
20233;DHT22;37438;55.674;13.074;2023-03-31T17:12:19;7.00;99.90
20233;DHT22;37438;55.674;13.074;2023-03-31T17:15:23;7.10;99.90
20233;DHT22;37438;55.674;13.074;2023-03-31T17:18:27;7.00;99.90
20233;DHT22;37438;55.674;13.074;2023-03-31T17:21:31;6.90;99.90
20233;DHT22;37438;55.674;13.074;2023-03-31T17:24:36;7.00;99.90
20233;DHT22;37438;55.674;13.074;2023-03-31T17:27:39;6.90;99.90
20233;DHT22;37438;55.674;13.074;2023-03-31T17:30:44;6.80;99.90
20233;DHT22;37438;55.674;13.074;2023-03-31T17:33:50;6.70;99.90
20233;DHT22;37438;55.674;13.074;2023-03-31T17:36:55;6.60;99.90
20233;DHT22;37438;55.674;13.074;2023-03-31T17:40:00;6.70;99.90
20233;DHT22;37438;55.674;13.074;2023-03-31T17:43:05;6.60;99.90
20233;DHT22;37438;55.674;13.074;2023-03-31T17:46:09;6.60;99.90
20233;DHT22;37438;55.674;13.074;2023-03-31T17:49:16;6.50;99.90
20233;DHT22;37438;55.674;13.074;2023-03-31T17:52:20;6.60;99.90
20233;DHT22;37438;55.674;13.074;2023-03-31T17:55:25;6.50;99.90
20233;DHT22;37438;55.674;13.074;2023-03-31T17:58:30;6.40;99.90
20233;DHT22;37438;55.674;13.074;2023-03-31T18:01:35;6.60;99.90
20233;DHT22;37438;55.674;13.074;2023-03-31T18:04:40;6.40;99.90
20233;DHT22;37438;55.674;13.074;2023-03-31T18:07:45;6.40;99.90
20233;DHT22;37438;55.674;13.074;2023-03-31T18:10:50;6.30;99.90
20233;DHT22;37438;55.674;13.074;2023-03-31T18:13:54;6.20;99.90
20233;DHT22;37438;55.674;13.074;2023-03-31T18:16:59;6.10;99.90
20233;DHT22;37438;55.674;13.074;2023-03-31T18:20:04;6.20;99.90
20233;DHT22;37438;55.674;13.074;2023-03-31T18:23:08;6.00;99.90
20233;DHT22;37438;55.674;13.074;2023-03-31T18:26:12;6.10;99.90
20233;DHT22;37438;55.674;13.074;2023-03-31T18:29:17;6.10;99.90
20233;DHT22;37438;55.674;13.074;2023-03-31T18:32:21;6.00;99.90
20233;DHT22;37438;55.674;13.074;2023-03-31T18:35:26;6.00;99.90
20233;DHT22;37438;55.674;13.074;2023-03-31T18:38:30;6.00;99.90
20233;DHT22;37438;55.674;13.074;2023-03-31T18:41:36;5.90;99.90
20233;DHT22;37438;55.674;13.074;2023-03-31T18:44:42;6.00;99.90
20233;DHT22;37438;55.674;13.074;2023-03-31T18:47:46;6.00;99.90
20233;DHT22;37438;55.674;13.074;2023-03-31T18:50:51;5.90;99.90
20233;DHT22;37438;55.674;13.074;2023-03-31T18:53:56;5.80;99.90
20233;DHT22;37438;55.674;13.074;2023-03-31T18:57:01;5.80;99.90
20233;DHT22;37438;55.674;13.074;2023-03-31T19:00:06;5.80;99.90
20233;DHT22;37438;55.674;13.074;2023-03-31T19:03:13;5.70;99.90
20233;DHT22;37438;55.674;13.074;2023-03-31T19:06:17;5.80;99.90
20233;DHT22;37438;55.674;13.074;2023-03-31T19:09:23;5.80;99.90
20233;DHT22;37438;55.674;13.074;2023-03-31T19:12:31;5.70;99.90
20233;DHT22;37438;55.674;13.074;2023-03-31T19:15:35;5.80;99.90
20233;DHT22;37438;55.674;13.074;2023-03-31T19:18:40;5.70;99.90
20233;DHT22;37438;55.674;13.074;2023-03-31T19:21:46;5.60;99.90
20233;DHT22;37438;55.674;13.074;2023-03-31T19:24:51;5.60;99.90
20233;DHT22;37438;55.674;13.074;2023-03-31T19:27:55;5.60;99.90
20233;DHT22;37438;55.674;13.074;2023-03-31T19:31:01;5.50;99.90
20233;DHT22;37438;55.674;13.074;2023-03-31T19:34:07;5.50;99.90
20233;DHT22;37438;55.674;13.074;2023-03-31T19:37:14;5.30;99.90
20233;DHT22;37438;55.674;13.074;2023-03-31T19:40:19;5.30;99.90
20233;DHT22;37438;55.674;13.074;2023-03-31T19:43:23;5.40;99.90
20233;DHT22;37438;55.674;13.074;2023-03-31T19:46:27;5.30;99.90
20233;DHT22;37438;55.674;13.074;2023-03-31T19:49:32;5.30;99.90
20233;DHT22;37438;55.674;13.074;2023-03-31T19:52:36;5.20;99.90
20233;DHT22;37438;55.674;13.074;2023-03-31T19:55:41;5.20;99.90
20233;DHT22;37438;55.674;13.074;2023-03-31T19:58:48;5.20;99.90
20233;DHT22;37438;55.674;13.074;2023-03-31T20:01:53;5.20;99.90
20233;DHT22;37438;55.674;13.074;2023-03-31T20:05:01;5.10;99.90
20233;DHT22;37438;55.674;13.074;2023-03-31T20:08:13;5.10;99.90
20233;DHT22;37438;55.674;13.074;2023-03-31T20:11:17;5.10;99.90
20233;DHT22;37438;55.674;13.074;2023-03-31T20:14:22;4.90;99.90
20233;DHT22;37438;55.674;13.074;2023-03-31T20:17:27;4.90;99.90
20233;DHT22;37438;55.674;13.074;2023-03-31T20:20:32;4.90;99.90
20233;DHT22;37438;55.674;13.074;2023-03-31T20:23:36;5.00;99.90
20233;DHT22;37438;55.674;13.074;2023-03-31T20:26:41;4.80;99.90
20233;DHT22;37438;55.674;13.074;2023-03-31T20:29:46;4.70;99.90
20233;DHT22;37438;55.674;13.074;2023-03-31T20:32:50;4.70;99.90
20233;DHT22;37438;55.674;13.074;2023-03-31T20:36:01;4.70;99.90
20233;DHT22;37438;55.674;13.074;2023-03-31T20:39:06;4.50;99.90
20233;DHT22;37438;55.674;13.074;2023-03-31T20:42:10;4.70;99.90
20233;DHT22;37438;55.674;13.074;2023-03-31T20:45:16;4.70;99.90
20233;DHT22;37438;55.674;13.074;2023-03-31T20:48:20;4.80;99.90
20233;DHT22;37438;55.674;13.074;2023-03-31T20:51:28;4.70;99.90
20233;DHT22;37438;55.674;13.074;2023-03-31T20:54:33;4.60;99.90
20233;DHT22;37438;55.674;13.074;2023-03-31T20:57:38;4.70;99.90
20233;DHT22;37438;55.674;13.074;2023-03-31T21:00:43;4.60;99.90
20233;DHT22;37438;55.674;13.074;2023-03-31T21:03:48;4.40;99.90
20233;DHT22;37438;55.674;13.074;2023-03-31T21:06:53;4.50;99.90
20233;DHT22;37438;55.674;13.074;2023-03-31T21:09:57;4.40;99.90
20233;DHT22;37438;55.674;13.074;2023-03-31T21:13:02;4.50;99.90
20233;DHT22;37438;55.674;13.074;2023-03-31T21:16:07;4.50;99.90
20233;DHT22;37438;55.674;13.074;2023-03-31T21:19:11;4.50;99.90
20233;DHT22;37438;55.674;13.074;2023-03-31T21:22:16;4.40;99.90
20233;DHT22;37438;55.674;13.074;2023-03-31T21:25:20;4.40;99.90
20233;DHT22;37438;55.674;13.074;2023-03-31T21:28:26;4.40;99.90
20233;DHT22;37438;55.674;13.074;2023-03-31T21:31:31;4.30;99.90
20233;DHT22;37438;55.674;13.074;2023-03-31T21:34:36;4.30;99.90